Time;durP1;ratioP1;P1;durP2;ratioP2;P2;SDS_P1;SDS_P2;PMS_P1;PMS_P2;Temp;Humidity;BMP_temperature;BMP_pressure;BME280_temperature;BME280_humidity;BME280_pressure;Samples;Min_cycle;Max_cycle;Signal;HPM_P1;HPM_P2
2021/03/18 00:01:23;;;;;;;10.50;7.57;;;;;;;1.22;84.37;101456.78;5014318;28;20037;-72
2021/03/18 00:03:50;;;;;;;11.30;7.40;;;;;;;1.21;84.69;101461.09;5021911;28;20041;-72
2021/03/18 00:06:16;;;;;;;12.57;7.15;;;;;;;1.21;84.56;101448.09;5020177;28;20037;-72
2021/03/18 00:08:44;;;;;;;11.73;7.30;;;;;;;1.15;84.85;101452.97;5018058;28;20373;-72
2021/03/18 00:11:13;;;;;;;10.93;7.30;;;;;;;1.12;84.44;101442.44;5018830;28;20040;-71
2021/03/18 00:13:40;;;;;;;13.43;8.50;;;;;;;1.16;84.14;101452.19;5022465;28;20041;-72
2021/03/18 00:16:06;;;;;;;13.10;8.57;;;;;;;1.11;84.70;101453.69;5020140;28;20034;-71
2021/03/18 00:18:37;;;;;;;11.07;7.53;;;;;;;1.05;84.34;101461.19;5020359;28;20033;-71
2021/03/18 00:21:02;;;;;;;11.63;6.93;;;;;;;1.07;84.86;101465.66;5023728;28;20395;-72
2021/03/18 00:23:29;;;;;;;11.97;7.73;;;;;;;1.08;84.42;101453.53;5015604;28;20033;-72
2021/03/18 00:25:55;;;;;;;11.50;7.60;;;;;;;1.13;84.70;101451.13;5017884;28;20025;-72
2021/03/18 00:28:21;;;;;;;11.00;7.30;;;;;;;1.11;84.77;101453.69;5023437;28;20034;-72
2021/03/18 00:30:46;;;;;;;15.20;9.33;;;;;;;1.00;84.43;101449.69;5020915;28;20094;-72
2021/03/18 00:33:12;;;;;;;10.63;7.10;;;;;;;1.00;84.84;101441.91;5020018;28;20045;-72
2021/03/18 00:35:37;;;;;;;11.67;7.60;;;;;;;1.02;85.10;101442.84;5020677;28;20037;-72
2021/03/18 00:38:03;;;;;;;11.37;7.50;;;;;;;1.05;84.70;101448.19;5023644;28;20103;-72
2021/03/18 00:40:39;;;;;;;11.80;7.70;;;;;;;1.03;84.33;101444.63;5023311;28;20049;-71
2021/03/18 00:43:07;;;;;;;14.47;9.17;;;;;;;1.04;84.63;101443.81;5012997;28;20042;-72
2021/03/18 00:45:35;;;;;;;12.47;7.63;;;;;;;1.11;84.70;101438.06;5019833;28;20034;-71
2021/03/18 00:48:02;;;;;;;11.50;7.00;;;;;;;1.14;84.74;101442.53;5023187;28;20492;-71
2021/03/18 00:50:43;;;;;;;11.60;7.70;;;;;;;1.15;83.94;101445.19;5037903;28;20116;-72
2021/03/18 00:53:16;;;;;;;11.20;8.20;;;;;;;1.20;84.14;101435.00;5013279;28;20068;-71
2021/03/18 00:55:42;;;;;;;9.80;6.70;;;;;;;1.27;83.49;101440.56;5019143;28;20057;-72
2021/03/18 00:58:08;;;;;;;10.40;7.57;;;;;;;1.31;83.63;101433.81;5037586;28;20025;-71
2021/03/18 01:00:38;;;;;;;12.47;8.13;;;;;;;1.40;83.58;101444.63;5021474;28;20032;-71
2021/03/18 01:03:04;;;;;;;11.17;7.57;;;;;;;1.45;83.02;101430.09;5018883;28;20030;-72
2021/03/18 01:05:34;;;;;;;9.50;7.13;;;;;;;1.48;82.88;101429.34;5018634;28;20041;-72
2021/03/18 01:08:00;;;;;;;12.40;8.30;;;;;;;1.46;82.80;101431.00;5011282;28;20088;-72
2021/03/18 01:10:28;;;;;;;15.07;9.33;;;;;;;1.49;83.12;101428.53;5018715;28;20033;-72
2021/03/18 01:12:54;;;;;;;13.63;9.07;;;;;;;1.52;82.63;101426.09;5021799;28;20518;-71
2021/03/18 01:15:22;;;;;;;10.40;7.55;;;;;;;1.50;82.31;101428.59;5021867;28;20041;-72
2021/03/18 01:17:48;;;;;;;11.77;8.10;;;;;;;1.48;82.04;101425.03;5019939;28;20083;-72
2021/03/18 01:20:15;;;;;;;12.93;9.73;;;;;;;1.41;82.47;101430.78;5018365;28;20569;-72
2021/03/18 01:22:40;;;;;;;14.77;9.27;;;;;;;1.38;82.53;101428.03;5019954;28;20042;-71
2021/03/18 01:25:07;;;;;;;12.63;8.50;;;;;;;1.25;81.88;101421.38;5018852;28;20030;-73
2021/03/18 01:27:33;;;;;;;13.60;9.03;;;;;;;1.09;82.61;101413.72;5022069;28;20052;-72
2021/03/18 01:29:58;;;;;;;11.80;8.80;;;;;;;0.98;82.29;101415.81;5018409;28;20030;-72
2021/03/18 01:32:23;;;;;;;13.40;8.93;;;;;;;0.84;83.07;101401.31;5018572;28;20128;-72
2021/03/18 01:34:48;;;;;;;14.97;9.97;;;;;;;0.66;83.10;101411.69;5020966;28;20077;-71
2021/03/18 01:37:14;;;;;;;14.07;8.70;;;;;;;0.54;83.61;101411.09;5021738;28;20488;-72
2021/03/18 01:39:39;;;;;;;16.67;10.43;;;;;;;0.37;83.17;101416.38;5020699;28;20087;-71
2021/03/18 01:42:05;;;;;;;12.07;8.23;;;;;;;0.26;83.91;101412.34;5018339;28;20065;-71
2021/03/18 01:44:31;;;;;;;12.77;9.03;;;;;;;0.16;83.59;101413.59;5021756;28;20038;-71
2021/03/18 01:46:56;;;;;;;16.77;10.37;;;;;;;0.06;83.83;101413.97;5023659;28;20052;-71
2021/03/18 01:49:22;;;;;;;16.95;10.00;;;;;;;-0.04;84.22;101411.72;5004350;28;592186;-71
2021/03/18 01:51:47;;;;;;;15.43;10.00;;;;;;;-0.15;83.93;101411.16;5024116;28;20115;-71
2021/03/18 01:54:14;;;;;;;16.13;9.93;;;;;;;-0.25;84.79;101416.69;5022942;28;20531;-71
2021/03/18 01:56:39;;;;;;;15.40;10.10;;;;;;;-0.29;85.16;101412.13;5023762;28;20397;-72
2021/03/18 01:59:05;;;;;;;15.57;10.33;;;;;;;-0.30;85.68;101410.38;5026451;28;20048;-72
2021/03/18 02:01:30;;;;;;;20.33;10.97;;;;;;;-0.32;86.31;101412.00;5026053;28;20487;-71
2021/03/18 02:03:56;;;;;;;16.20;10.50;;;;;;;-0.35;86.58;101401.47;5022898;28;20065;-71
2021/03/18 02:06:21;;;;;;;16.80;9.67;;;;;;;-0.35;87.35;101399.75;5022484;28;20046;-72
2021/03/18 02:08:47;;;;;;;20.23;11.83;;;;;;;-0.32;87.40;101399.91;5024901;28;20038;-71
2021/03/18 02:11:12;;;;;;;61.07;12.60;;;;;;;-0.24;87.15;101405.50;5025757;28;20033;-71
2021/03/18 02:13:38;;;;;;;120.40;15.50;;;;;;;-0.23;87.38;101409.88;5025189;28;20037;-71
2021/03/18 02:16:07;;;;;;;78.10;15.33;;;;;;;-0.12;87.50;101408.72;5022260;28;20061;-71
2021/03/18 02:18:40;;;;;;;64.43;13.93;;;;;;;-0.03;87.14;101403.09;5023044;28;20165;-71
2021/03/18 02:21:22;;;;;;;62.70;12.63;;;;;;;0.02;86.97;101404.22;5025774;28;20046;-71
2021/03/18 02:24:02;;;;;;;66.32;13.35;;;;;;;0.09;86.93;101411.50;5023398;28;20037;-71
2021/03/18 02:26:33;;;;;;;273.73;21.63;;;;;;;0.14;87.48;101412.63;5022297;28;20042;-72
2021/03/18 02:29:17;;;;;;;169.17;17.17;;;;;;;0.21;86.87;101409.53;5014520;28;20125;-71
2021/03/18 02:32:05;;;;;;;63.17;14.70;;;;;;;0.23;86.45;101409.59;5023822;28;20033;-71
2021/03/18 02:35:09;;;;;;;36.53;12.20;;;;;;;0.26;85.89;101403.66;5016039;28;20053;-71
2021/03/18 02:37:38;;;;;;;103.20;15.63;;;;;;;0.30;85.82;101411.69;4999488;28;20046;-71
2021/03/18 02:40:10;;;;;;;56.70;13.67;;;;;;;0.22;85.40;101407.81;5025259;28;20087;-72
2021/03/18 02:42:37;;;;;;;83.28;13.95;;;;;;;0.27;85.87;101408.06;5024749;28;20048;-71
2021/03/18 02:45:05;;;;;;;84.80;13.77;;;;;;;0.32;85.60;101416.97;5021789;28;20045;-72
2021/03/18 02:47:35;;;;;;;66.13;14.40;;;;;;;0.39;86.09;101411.25;5022144;28;20452;-72
2021/03/18 02:50:00;;;;;;;84.47;14.23;;;;;;;0.34;84.92;101410.13;5040314;28;20039;-71
2021/03/18 02:52:29;;;;;;;98.43;14.33;;;;;;;0.28;84.83;101415.03;5025305;28;20033;-71
2021/03/18 02:54:56;;;;;;;46.77;10.63;;;;;;;0.26;85.87;101414.03;5021867;28;20092;-72
2021/03/18 02:57:24;;;;;;;31.40;10.17;;;;;;;0.23;84.77;101417.38;5021508;28;20026;-71
2021/03/18 02:59:51;;;;;;;84.37;13.30;;;;;;;0.17;84.60;101412.78;5024066;28;20050;-72
2021/03/18 03:02:25;;;;;;;92.30;13.67;;;;;;;0.13;84.84;101412.53;5025095;28;20507;-71
2021/03/18 03:04:53;;;;;;;72.40;11.83;;;;;;;0.12;85.21;101415.97;5022222;28;20496;-72
2021/03/18 03:07:22;;;;;;;44.10;10.33;;;;;;;0.03;85.05;101415.47;5021184;28;20037;-72
2021/03/18 03:09:48;;;;;;;49.47;10.90;;;;;;;-0.01;85.02;101420.53;5023608;28;20030;-71
2021/03/18 03:12:16;;;;;;;30.23;10.67;;;;;;;0.02;85.89;101413.72;5024928;28;20167;-71
2021/03/18 03:14:44;;;;;;;51.63;12.50;;;;;;;0.11;85.27;101416.78;5023465;28;20060;-71
2021/03/18 03:17:13;;;;;;;79.20;15.37;;;;;;;0.12;85.06;101410.78;5019009;28;20050;-71
2021/03/18 03:19:43;;;;;;;75.80;13.67;;;;;;;0.15;84.80;101411.81;5019839;28;20040;-71
2021/03/18 03:22:08;;;;;;;26.50;10.77;;;;;;;0.16;84.91;101407.53;5024581;28;20025;-71
2021/03/18 03:24:36;;;;;;;43.60;11.70;;;;;;;0.15;85.17;101403.13;5024089;28;20036;-71
2021/03/18 03:27:04;;;;;;;48.50;14.53;;;;;;;0.17;84.96;101404.09;5021010;28;20037;-71
2021/03/18 03:29:30;;;;;;;36.03;14.50;;;;;;;0.25;84.94;101402.78;5021080;28;20124;-71
2021/03/18 03:31:57;;;;;;;42.33;15.83;;;;;;;0.34;85.68;101403.25;5024431;28;20067;-71
2021/03/18 03:34:22;;;;;;;48.40;14.57;;;;;;;0.43;85.77;101401.09;5024512;28;20034;-72
2021/03/18 03:36:48;;;;;;;44.10;15.93;;;;;;;0.42;85.76;101406.22;5021768;28;20140;-71
2021/03/18 03:39:14;;;;;;;40.57;14.43;;;;;;;0.49;85.26;101402.19;5020857;28;20046;-72
2021/03/18 03:41:39;;;;;;;40.13;13.93;;;;;;;0.64;85.39;101403.81;5022032;28;20029;-71
2021/03/18 03:44:06;;;;;;;57.83;14.07;;;;;;;0.70;84.22;101398.03;5024243;28;20462;-71
2021/03/18 03:46:31;;;;;;;38.27;13.63;;;;;;;0.70;83.81;101408.41;5023844;28;20029;-72
2021/03/18 03:48:57;;;;;;;28.90;11.40;;;;;;;0.64;84.33;101405.53;5020738;28;20033;-71
2021/03/18 03:51:28;;;;;;;45.13;13.47;;;;;;;0.74;84.19;101409.47;5020502;28;20030;-71
2021/03/18 03:54:01;;;;;;;91.17;16.50;;;;;;;0.78;83.77;101411.38;5024005;28;20043;-71
2021/03/18 03:56:32;;;;;;;129.50;18.73;;;;;;;0.71;83.19;101409.31;5023868;28;20045;-71
2021/03/18 03:59:13;;;;;;;78.97;14.27;;;;;;;0.60;83.23;101412.31;5013035;28;20113;-80
2021/03/18 04:01:56;;;;;;;88.17;15.87;;;;;;;0.64;83.37;101419.41;5021626;28;20448;-72
2021/03/18 04:04:48;;;;;;;81.50;14.93;;;;;;;0.60;83.43;101412.31;5023841;28;20041;-71
2021/03/18 04:07:17;;;;;;;64.00;17.20;;;;;;;0.55;83.23;101413.78;5014193;28;20041;-72
2021/03/18 04:09:44;;;;;;;91.97;15.43;;;;;;;0.57;82.88;101413.84;5021815;28;20393;-71
2021/03/18 04:12:13;;;;;;;61.30;13.93;;;;;;;0.51;83.72;101406.66;5023763;28;20615;-72
2021/03/18 04:14:47;;;;;;;45.87;16.00;;;;;;;0.53;83.33;101412.81;5022611;28;20111;-72
2021/03/18 04:17:16;;;;;;;60.93;17.60;;;;;;;0.55;83.71;101407.69;5020132;28;20492;-72
2021/03/18 04:19:49;;;;;;;90.67;14.90;;;;;;;0.60;83.16;101409.72;5021510;28;20472;-72
2021/03/18 04:22:15;;;;;;;;;;;;;;;0.55;83.28;101410.28;5024107;28;20037;-72
2021/03/18 04:24:42;;;;;;;189.20;20.10;;;;;;;0.61;83.21;101419.25;5022177;28;19924;-72
2021/03/18 04:27:08;;;;;;;128.03;19.10;;;;;;;0.58;82.09;101418.25;5019936;28;20054;-72
2021/03/18 04:29:37;;;;;;;87.07;16.83;;;;;;;0.36;82.48;101417.16;5020446;28;20042;-72
2021/03/18 04:32:03;;;;;;;50.77;13.60;;;;;;;0.24;83.29;101420.84;5023487;28;20037;-72
2021/03/18 04:34:30;;;;;;;28.23;12.27;;;;;;;0.21;83.55;101419.91;5023727;28;20033;-72
2021/03/18 04:36:56;;;;;;;64.47;14.00;;;;;;;0.24;83.17;101421.78;5019692;28;20721;-72
2021/03/18 04:39:23;;;;;;;29.60;12.53;;;;;;;0.18;83.15;101426.63;5019899;28;20042;-72
2021/03/18 04:41:53;;;;;;;77.07;12.57;;;;;;;0.24;82.83;101429.56;5022201;28;20061;-72
2021/03/18 04:44:18;;;;;;;115.67;13.87;;;;;;;0.13;82.11;101422.94;5000690;28;20038;-72
2021/03/18 04:46:46;;;;;;;72.20;11.97;;;;;;;0.05;82.33;101425.13;5012355;28;20044;-72
2021/03/18 04:49:14;;;;;;;49.50;10.80;;;;;;;0.07;82.86;101420.03;5019547;28;20041;-71
2021/03/18 04:51:43;;;;;;;50.37;11.43;;;;;;;0.12;83.39;101421.16;5021014;28;20057;-71
2021/03/18 04:54:08;;;;;;;165.90;16.70;;;;;;;0.12;82.53;101415.97;5023151;28;20044;-71
2021/03/18 04:56:34;;;;;;;54.30;11.67;;;;;;;0.12;83.43;101415.97;5022435;28;20404;-72
2021/03/18 04:59:01;;;;;;;70.03;12.27;;;;;;;0.16;83.80;101420.50;5019741;28;20041;-71
2021/03/18 05:01:27;;;;;;;82.53;10.97;;;;;;;0.13;82.85;101425.53;5019599;28;20038;-71
2021/03/18 05:03:53;;;;;;;70.47;11.47;;;;;;;0.13;83.23;101421.25;5022672;28;20037;-72
2021/03/18 05:06:23;;;;;;;70.27;12.20;;;;;;;0.16;83.25;101416.19;5023129;28;20514;-72
2021/03/18 05:08:49;;;;;;;80.30;12.97;;;;;;;0.30;83.33;101422.06;5020595;28;20037;-71
2021/03/18 05:11:15;;;;;;;38.57;9.37;;;;;;;0.29;83.24;101425.50;5019520;28;20057;-72
2021/03/18 05:13:41;;;;;;;149.47;14.40;;;;;;;0.13;82.53;101426.44;5020878;28;20042;-73
2021/03/18 05:16:09;;;;;;;48.30;10.37;;;;;;;0.17;83.36;101424.88;5022834;28;20044;-71
2021/03/18 05:18:35;;;;;;;100.07;12.50;;;;;;;0.08;82.27;101420.13;5024805;28;20511;-73
2021/03/18 05:21:03;;;;;;;60.63;11.37;;;;;;;-0.01;82.86;101415.34;5023416;28;20056;-72
2021/03/18 05:23:30;;;;;;;19.40;10.07;;;;;;;0.10;83.62;101417.59;5022088;28;20044;-72
2021/03/18 05:25:55;;;;;;;73.33;12.67;;;;;;;0.20;83.46;101407.72;5023165;28;20099;-72
2021/03/18 05:28:21;;;;;;;91.60;12.57;;;;;;;0.20;82.63;101414.63;5023380;28;20038;-72
2021/03/18 05:30:47;;;;;;;74.90;11.33;;;;;;;0.06;82.36;101405.28;5025318;28;20484;-71
2021/03/18 05:33:12;;;;;;;82.30;11.37;;;;;;;0.01;83.20;101411.94;5025570;28;20033;-72
2021/03/18 05:35:41;;;;;;;86.30;16.53;;;;;;;0.09;83.43;101416.69;5025426;28;20407;-72
2021/03/18 05:38:08;;;;;;;99.77;15.33;;;;;;;0.06;82.43;101407.88;5023229;28;20046;-71
2021/03/18 05:40:35;;;;;;;57.80;10.97;;;;;;;0.06;82.63;101420.84;5023190;28;20041;-72
2021/03/18 05:43:01;;;;;;;89.23;11.67;;;;;;;0.02;82.86;101414.59;5026632;28;20116;-72
2021/03/18 05:45:27;;;;;;;97.60;13.07;;;;;;;0.13;82.84;101413.47;5026313;28;20034;-72
2021/03/18 05:47:53;;;;;;;53.83;10.43;;;;;;;0.12;83.04;101418.56;5023812;28;20033;-73
2021/03/18 05:50:20;;;;;;;97.53;12.93;;;;;;;0.28;83.23;101420.22;5081299;23;20317;-74
2021/03/18 05:52:48;;;;;;;62.73;12.77;;;;;;;0.37;82.82;101428.47;5044063;28;20048;-74
2021/03/18 05:55:14;;;;;;;60.70;11.67;;;;;;;0.53;83.04;101420.59;5042431;28;20112;-73
2021/03/18 05:57:40;;;;;;;120.87;15.20;;;;;;;0.66;82.40;101422.09;5043919;28;20033;-74
2021/03/18 06:00:08;;;;;;;96.27;14.57;;;;;;;0.64;82.35;101419.41;5045943;28;20059;-74
2021/03/18 06:02:35;;;;;;;74.67;13.37;;;;;;;0.61;82.19;101424.47;5045695;28;20057;-74
2021/03/18 06:05:07;;;;;;;76.33;11.93;;;;;;;0.58;81.49;101418.25;5042383;28;20033;-74
2021/03/18 06:07:35;;;;;;;73.18;11.68;;;;;;;0.61;81.84;101419.25;5042780;28;20507;-74
2021/03/18 06:10:00;;;;;;;31.73;9.23;;;;;;;0.74;81.65;101420.75;5045824;28;20040;-74
2021/03/18 06:12:27;;;;;;;36.57;10.93;;;;;;;0.75;81.04;101421.63;5045864;28;20037;-75
2021/03/18 06:14:52;;;;;;;58.80;11.73;;;;;;;0.73;80.68;101423.25;5042782;28;20064;-74
2021/03/18 06:17:18;;;;;;;32.67;10.20;;;;;;;0.79;81.40;101424.47;5041999;28;20119;-74
2021/03/18 06:19:44;;;;;;;28.80;9.97;;;;;;;0.83;80.73;101426.38;5043839;28;20433;-74
2021/03/18 06:22:09;;;;;;;25.53;11.50;;;;;;;0.85;80.76;101427.34;5045538;28;20050;-74
2021/03/18 06:24:49;;;;;;;22.37;10.57;;;;;;;0.78;80.90;101432.16;5045113;28;20131;-74
2021/03/18 06:27:22;;;;;;;21.43;10.83;;;;;;;0.71;80.46;101425.81;5041827;28;20037;-74
2021/03/18 06:29:48;;;;;;;21.03;10.67;;;;;;;0.75;81.19;101425.13;5043784;28;20062;-74
2021/03/18 06:32:13;;;;;;;29.13;11.33;;;;;;;0.69;81.50;101426.56;5045282;28;20170;-74
2021/03/18 06:34:49;;;;;;;27.57;10.13;;;;;;;0.72;81.48;101424.97;5043047;28;20033;-74
2021/03/18 06:37:30;;;;;;;26.50;11.13;;;;;;;0.58;81.82;101423.44;5041538;28;20037;-75
2021/03/18 06:39:59;;;;;;;40.43;11.67;;;;;;;0.63;82.00;101424.56;5044569;28;20353;-74
2021/03/18 06:42:24;;;;;;;32.63;11.53;;;;;;;0.59;81.98;101425.22;5045267;28;20042;-74
2021/03/18 06:45:07;;;;;;;45.17;12.20;;;;;;;0.61;81.38;101428.78;5042597;28;20035;-74
2021/03/18 06:47:49;;;;;;;23.20;12.10;;;;;;;0.54;82.33;101424.09;5041824;28;20531;-74
2021/03/18 06:50:18;;;;;;;21.30;11.55;;;;;;;0.56;82.55;101425.06;5044855;28;20033;-74
2021/03/18 06:52:44;;;;;;;19.33;11.17;;;;;;;0.65;82.38;101426.41;5043801;28;20090;-75
2021/03/18 06:55:12;;;;;;;31.73;11.23;;;;;;;0.75;81.92;101427.72;5041277;28;20041;-74
2021/03/18 06:57:38;;;;;;;17.27;10.97;;;;;;;0.80;81.57;101425.34;5038062;28;20544;-74
2021/03/18 07:00:09;;;;;;;17.83;10.97;;;;;;;0.75;81.30;101424.22;5040082;28;20077;-74
2021/03/18 07:02:40;;;;;;;33.07;10.33;;;;;;;0.78;80.67;101422.66;5041915;28;20081;-74
2021/03/18 07:05:16;;;;;;;31.50;9.70;;;;;;;0.81;80.92;101428.03;5044859;28;20041;-74
2021/03/18 07:07:42;;;;;;;59.88;10.70;;;;;;;0.84;80.41;101419.50;5041963;28;20041;-74
2021/03/18 07:10:08;;;;;;;29.20;9.87;;;;;;;0.91;80.12;101420.66;5041225;28;20048;-74
2021/03/18 07:12:33;;;;;;;72.87;12.13;;;;;;;0.88;80.17;101419.69;5041537;28;20087;-74
2021/03/18 07:15:00;;;;;;;63.80;12.25;;;;;;;0.91;79.87;101423.25;5044498;28;20513;-74
2021/03/18 07:17:30;;;;;;;54.33;11.43;;;;;;;0.78;79.92;101422.66;5043277;28;20064;-74
2021/03/18 07:20:11;;;;;;;39.47;12.57;;;;;;;0.70;81.93;101423.13;5041010;28;20033;-74
2021/03/18 07:23:00;;;;;;;28.37;12.13;;;;;;;0.94;81.08;101420.78;5041108;28;20041;-74
2021/03/18 07:25:29;;;;;;;21.33;10.07;;;;;;;1.07;79.51;101420.53;5038530;28;20492;-74
2021/03/18 07:27:59;;;;;;;17.50;8.87;;;;;;;0.93;80.09;101424.22;5040149;28;20041;-74
2021/03/18 07:30:28;;;;;;;19.93;9.80;;;;;;;0.93;79.90;101416.44;5038242;28;20026;-74
2021/03/18 07:32:55;;;;;;;18.60;11.02;;;;;;;1.10;79.54;101410.28;5031414;28;20033;-74
2021/03/18 07:35:22;;;;;;;26.70;10.67;;;;;;;1.34;78.91;101409.63;5043987;28;20039;-74
2021/03/18 07:37:47;;;;;;;16.50;9.40;;;;;;;1.42;78.75;101406.56;5040723;28;20041;-74
2021/03/18 07:40:13;;;;;;;18.67;9.50;;;;;;;1.67;77.21;101405.91;5039804;28;20699;-75
2021/03/18 07:42:39;;;;;;;21.30;8.88;;;;;;;1.87;76.87;101398.09;5033898;28;20506;-74
2021/03/18 07:45:06;;;;;;;14.88;9.35;;;;;;;2.09;76.33;101405.97;5042598;28;20123;-74
2021/03/18 07:47:35;;;;;;;17.10;8.77;;;;;;;2.02;75.64;101401.38;5043866;28;20032;-74
2021/03/18 07:50:06;;;;;;;21.20;9.00;;;;;;;1.87;75.44;101398.09;5040219;28;20029;-74
2021/03/18 07:52:34;;;;;;;31.70;10.55;;;;;;;2.05;75.53;101398.00;5040541;28;20045;-74
2021/03/18 07:55:00;;;;;;;19.42;9.88;;;;;;;2.16;76.18;101395.00;5043547;28;20483;-74
2021/03/18 07:57:26;;;;;;;14.65;11.63;;;;;;;2.22;75.91;101391.75;5042535;28;20040;-74
2021/03/18 08:00:06;;;;;;;21.05;12.00;;;;;;;2.17;76.21;101389.00;5039413;28;20112;-75
2021/03/18 08:02:32;;;;;;;12.68;9.20;;;;;;;1.92;75.61;101396.59;5039019;28;20065;-74
2021/03/18 08:04:57;;;;;;;19.45;11.40;;;;;;;1.84;76.46;101392.78;5043452;28;20072;-74
2021/03/18 08:07:44;;;;;;;19.25;9.90;;;;;;;1.82;76.01;101395.28;5043563;28;20411;-74
2021/03/18 08:10:15;;;;;;;15.35;10.65;;;;;;;1.77;77.29;101398.53;5033698;28;20038;-74
2021/03/18 08:12:46;;;;;;;18.10;9.70;;;;;;;1.78;77.23;101395.09;5040182;28;20048;-74
2021/03/18 08:15:21;;;;;;;11.98;9.15;;;;;;;2.16;76.19;101389.81;5041887;28;20043;-74
2021/03/18 08:17:47;;;;;;;14.40;10.00;;;;;;;2.30;76.52;101392.09;5041359;28;20071;-75
2021/03/18 08:20:38;;;;;;;15.02;11.18;;;;;;;2.30;76.77;101385.16;5038569;28;20049;-74
2021/03/18 08:23:35;;;;;;;11.98;9.15;;;;;;;2.29;76.41;101385.09;5032415;28;20063;-74
2021/03/18 08:26:12;;;;;;;16.77;10.50;;;;;;;2.22;76.72;101385.66;5047224;28;20602;-74
2021/03/18 08:28:49;;;;;;;14.77;10.52;;;;;;;2.17;77.28;101375.97;5040664;28;20415;-74
2021/03/18 08:31:20;;;;;;;14.80;11.23;;;;;;;2.34;77.88;101379.25;5041814;28;20079;-74
2021/03/18 08:33:56;;;;;;;15.88;11.25;;;;;;;2.52;77.13;101380.84;5041063;28;20399;-74
2021/03/18 08:36:27;;;;;;;17.45;11.70;;;;;;;2.53;77.31;101366.97;5039490;28;20116;-74
2021/03/18 08:39:33;;;;;;;14.85;11.40;;;;;;;2.61;77.04;101375.97;5042525;28;20636;-74
2021/03/18 08:41:58;;;;;;;19.02;13.35;;;;;;;2.57;76.82;101374.09;5031457;28;20048;-74
2021/03/18 08:44:29;;;;;;;16.85;12.88;;;;;;;2.76;76.94;101365.28;5039686;28;20424;-74
2021/03/18 08:47:00;;;;;;;16.52;12.55;;;;;;;2.83;76.12;101373.38;5042474;28;20044;-74
2021/03/18 08:49:38;;;;;;;16.70;11.82;;;;;;;2.77;76.80;101373.13;5041673;28;20091;-74
2021/03/18 08:52:20;;;;;;;15.30;11.75;;;;;;;2.73;75.53;101376.47;5031961;28;20041;-74
2021/03/18 08:54:51;;;;;;;14.82;11.43;;;;;;;2.74;76.35;101372.13;5041426;28;20034;-74
2021/03/18 08:57:20;;;;;;;15.95;12.18;;;;;;;2.92;76.32;101367.63;5041438;28;20159;-74
2021/03/18 08:59:53;;;;;;;12.13;8.85;;;;;;;3.10;75.87;101366.56;5040711;28;20041;-74
2021/03/18 09:02:21;;;;;;;12.10;9.50;;;;;;;3.26;74.80;101366.28;5038174;28;20118;-74
2021/03/18 09:04:50;;;;;;;14.25;10.95;;;;;;;3.52;74.17;101367.25;5041327;28;20033;-74
2021/03/18 09:07:25;;;;;;;21.70;15.63;;;;;;;3.71;75.07;101361.81;5042575;28;20561;-75
2021/03/18 09:10:13;;;;;;;20.40;14.10;;;;;;;4.18;72.80;101361.66;5040161;28;20041;-75
2021/03/18 09:12:50;;;;;;;24.23;16.92;;;;;;;4.43;72.47;101357.22;5040514;28;20407;-74
2021/03/18 09:15:26;;;;;;;19.83;14.20;;;;;;;4.36;73.16;101366.63;5042549;28;20033;-74
2021/03/18 09:17:59;;;;;;;18.65;13.65;;;;;;;4.28;73.25;101352.41;5039963;28;20036;-74
2021/03/18 09:20:29;;;;;;;25.08;17.30;;;;;;;4.41;73.69;101353.69;5039068;28;20042;-74
2021/03/18 09:23:07;;;;;;;17.92;12.48;;;;;;;4.61;72.38;101350.88;5042285;28;20048;-74
2021/03/18 09:25:33;;;;;;;16.35;12.40;;;;;;;4.60;72.62;101348.19;5041039;28;20522;-74
2021/03/18 09:27:59;;;;;;;13.30;9.77;;;;;;;4.96;71.54;101339.72;5039041;28;20045;-74
2021/03/18 09:30:26;;;;;;;15.35;10.18;;;;;;;5.23;70.71;101331.75;5037613;28;20053;-74
2021/03/18 09:32:52;;;;;;;12.07;9.32;;;;;;;5.17;70.37;101336.84;5041722;28;20041;-74
2021/03/18 09:35:18;;;;;;;15.55;11.25;;;;;;;5.08;70.13;101336.56;5042248;28;20487;-74
2021/03/18 09:37:45;;;;;;;12.68;9.90;;;;;;;4.96;69.93;101339.72;5039642;28;20091;-74
2021/03/18 09:40:13;;;;;;;14.00;10.65;;;;;;;4.92;70.22;101341.31;5036156;28;20134;-74
2021/03/18 09:42:38;;;;;;;14.00;10.32;;;;;;;4.82;69.59;101341.88;5041567;28;20513;-74
2021/03/18 09:45:06;;;;;;;12.90;10.07;;;;;;;4.86;70.02;101337.66;5038759;28;20121;-74
2021/03/18 09:47:32;;;;;;;12.60;9.27;;;;;;;4.66;68.50;101348.38;5038891;28;20057;-74
2021/03/18 09:49:58;;;;;;;15.27;11.00;;;;;;;4.60;69.96;101335.13;5042235;28;20517;-74
2021/03/18 09:52:27;;;;;;;14.98;10.32;;;;;;;4.72;69.69;101337.25;5041104;28;20491;-73
2021/03/18 09:54:58;;;;;;;11.75;9.27;;;;;;;5.05;68.78;101325.16;5038320;28;20399;-74
2021/03/18 09:57:28;;;;;;;14.48;10.70;;;;;;;5.13;69.31;101327.97;5038802;28;20069;-74
2021/03/18 09:59:55;;;;;;;14.02;11.43;;;;;;;5.40;69.52;101327.00;5041553;28;20511;-74
2021/03/18 10:02:26;;;;;;;21.02;15.48;;;;;;;5.48;68.80;101317.63;5042165;28;20438;-75
2021/03/18 10:04:52;;;;;;;16.35;10.70;;;;;;;5.94;68.14;101316.22;5040710;28;20642;-74
2021/03/18 10:07:18;;;;;;;13.82;10.82;;;;;;;6.30;67.50;101312.75;5041078;28;20128;-74
2021/03/18 10:09:47;;;;;;;12.23;10.00;;;;;;;6.72;66.94;101306.72;5043943;28;20037;-74
2021/03/18 10:12:18;;;;;;;12.60;9.50;;;;;;;6.94;65.23;101298.47;5045757;28;20024;-74
2021/03/18 10:14:47;;;;;;;11.00;8.82;;;;;;;7.23;64.80;101296.44;5043049;28;20384;-74
2021/03/18 10:17:26;;;;;;;11.35;8.82;;;;;;;6.99;63.98;101301.16;5040818;28;20049;-74
2021/03/18 10:19:59;;;;;;;9.15;7.68;;;;;;;6.82;64.75;101295.56;5044800;28;20061;-74
2021/03/18 10:22:48;;;;;;;11.38;8.13;;;;;;;6.44;66.10;101287.72;5045617;28;20045;-74
2021/03/18 10:25:16;;;;;;;13.02;9.98;;;;;;;6.09;67.72;101298.28;5035748;28;20493;-75
2021/03/18 10:27:44;;;;;;;10.63;7.78;;;;;;;6.20;66.24;101301.16;5043391;28;20026;-75
2021/03/18 10:30:18;;;;;;;7.20;5.75;;;;;;;6.31;65.64;101296.16;5045282;28;20498;-74
2021/03/18 10:33:21;;;;;;;9.57;7.43;;;;;;;6.22;67.42;101293.34;5043747;28;20040;-74
2021/03/18 10:35:52;;;;;;;6.97;5.38;;;;;;;6.07;66.29;101299.09;5001870;28;20077;-74
2021/03/18 10:38:28;;;;;;;7.20;5.15;;;;;;;5.90;65.96;101294.28;5038645;28;20048;-74
2021/03/18 10:40:55;;;;;;;8.52;5.90;;;;;;;5.86;66.76;101296.78;5042211;28;20037;-74
2021/03/18 10:43:28;;;;;;;7.22;4.63;;;;;;;5.87;66.44;101288.09;5041782;28;20518;-74
2021/03/18 10:46:02;;;;;;;8.35;4.80;;;;;;;5.66;65.74;101294.56;5044522;28;20040;-74
2021/03/18 10:48:31;;;;;;;7.70;4.65;;;;;;;5.63;66.96;101293.56;5044098;28;20044;-74
2021/03/18 10:51:12;;;;;;;7.40;4.45;;;;;;;5.70;66.75;101285.03;5041490;28;20044;-74
2021/03/18 10:53:39;;;;;;;7.88;5.03;;;;;;;5.88;65.63;101282.00;5042422;28;20048;-74
2021/03/18 10:56:06;;;;;;;7.30;5.25;;;;;;;5.80;66.14;101273.06;5044667;28;20036;-74
2021/03/18 10:58:32;;;;;;;11.57;7.72;;;;;;;5.84;67.45;101267.94;5044687;28;20044;-74
2021/03/18 11:00:59;;;;;;;8.10;4.82;;;;;;;5.81;66.75;101266.97;5021977;28;20034;-74
2021/03/18 11:03:33;;;;;;;6.90;4.90;;;;;;;5.72;66.66;101265.00;5033999;28;20048;-74
2021/03/18 11:05:59;;;;;;;7.47;5.13;;;;;;;5.74;67.08;101259.78;5015247;28;20037;-74
2021/03/18 11:08:33;;;;;;;7.20;5.15;;;;;;;5.87;66.76;101261.91;5043978;28;20041;-75
2021/03/18 11:11:00;;;;;;;8.88;5.68;;;;;;;6.01;66.93;101254.41;5033068;28;20069;-75
2021/03/18 11:13:30;;;;;;;7.80;5.63;;;;;;;6.02;67.26;101250.91;5041073;28;20033;-74
2021/03/18 11:16:04;;;;;;;9.38;5.85;;;;;;;6.12;66.40;101250.28;5043109;28;20040;-74
2021/03/18 11:18:36;;;;;;;8.43;5.90;;;;;;;6.16;65.10;101249.53;5043200;28;20128;-74
2021/03/18 11:21:05;;;;;;;9.00;5.95;;;;;;;6.05;66.00;101236.19;5032455;28;20064;-74
2021/03/18 11:23:36;;;;;;;9.23;6.80;;;;;;;6.36;66.77;101231.59;5043329;28;20036;-74
2021/03/18 11:26:05;;;;;;;7.93;5.55;;;;;;;6.73;65.24;101229.78;5033282;28;20025;-74
2021/03/18 11:28:31;;;;;;;9.15;5.65;;;;;;;6.84;62.96;101230.91;5040807;28;20437;-75
2021/03/18 11:30:58;;;;;;;8.63;5.78;;;;;;;6.57;63.41;101226.81;5041954;28;20063;-73